Time;durP1;ratioP1;P1;durP2;ratioP2;P2;SDS_P1;SDS_P2;PMS_P1;PMS_P2;Temp;Humidity;BMP_temperature;BMP_pressure;BME280_temperature;BME280_humidity;BME280_pressure;Samples;Min_cycle;Max_cycle;Signal;HPM_P1;HPM_P2
2022/08/24 00:01:09;;;;;;;0.13;0.13;;;17.10;85.20;;;;;;5034234;28;20024;-74
2022/08/24 00:03:36;;;;;;;8.35;1.95;;;17.00;85.20;;;;;;5016677;28;20481;-74
2022/08/24 00:06:03;;;;;;;1.20;1.20;;;16.80;85.70;;;;;;5034202;28;20029;-74
2022/08/24 00:08:30;;;;;;;0.47;0.40;;;16.70;86.00;;;;;;5034069;28;20108;-74
2022/08/24 00:10:56;;;;;;;0.50;0.50;;;16.50;86.80;;;;;;5034075;28;20029;-74
2022/08/24 00:13:22;;;;;;;5.90;2.67;;;16.40;87.40;;;;;;5034045;28;20037;-74
2022/08/24 00:15:48;;;;;;;0.40;0.40;;;16.40;87.50;;;;;;5033914;28;20033;-74
2022/08/24 00:18:13;;;;;;;3.42;0.93;;;16.50;87.80;;;;;;5016066;28;20025;-74
2022/08/24 00:20:40;;;;;;;0.57;0.57;;;16.60;87.10;;;;;;5033975;28;20025;-74
2022/08/24 00:23:06;;;;;;;0.52;0.47;;;16.50;87.60;;;;;;5033949;28;20060;-74
2022/08/24 00:25:32;;;;;;;0.10;0.10;;;16.50;87.50;;;;;;5033883;28;20488;-74
2022/08/24 00:27:58;;;;;;;0.10;0.10;;;16.50;88.00;;;;;;5015940;28;20026;-74
2022/08/24 00:30:25;;;;;;;0.40;0.40;;;16.40;88.90;;;;;;5033839;28;20026;-74
2022/08/24 00:32:53;;;;;;;0.47;0.30;;;16.40;88.80;;;;;;5033683;28;20044;-74
2022/08/24 00:35:19;;;;;;;0.13;0.13;;;16.30;89.20;;;;;;5033563;28;20021;-74
2022/08/24 00:37:46;;;;;;;0.75;0.65;;;16.30;89.50;;;;;;5033443;28;20056;-74
2022/08/24 00:40:23;;;;;;;0.55;0.55;;;16.30;89.00;;;;;;5033551;28;20030;-74
2022/08/24 00:42:50;;;;;;;1.20;1.10;;;16.40;89.50;;;;;;5033524;28;20095;-74
2022/08/24 00:45:16;;;;;;;0.15;0.15;;;16.40;89.20;;;;;;5033491;28;20428;-74
2022/08/24 00:47:57;;;;;;;0.40;0.40;;;16.40;89.40;;;;;;5015729;28;20079;-74
2022/08/24 00:50:43;;;;;;;0.30;0.30;;;16.30;89.10;;;;;;5015751;28;20029;-74
2022/08/24 00:53:17;;;;;;;0.30;0.30;;;16.40;89.30;;;;;;5033118;28;20388;-74
2022/08/24 00:55:48;;;;;;;0.40;0.40;;;16.30;90.00;;;;;;5033207;28;20026;-74
2022/08/24 00:58:19;;;;;;;0.30;0.30;;;16.40;90.30;;;;;;4999177;28;20029;-74
2022/08/24 01:00:52;;;;;;;0.38;0.38;;;16.40;89.60;;;;;;5015475;28;20132;-73
2022/08/24 01:03:18;;;;;;;;;;;16.40;90.00;;;;;;5033546;28;20473;-73
2022/08/24 01:05:43;;;;;;;0.22;0.22;;;16.30;89.90;;;;;;5015357;28;19935;-73
2022/08/24 01:08:11;;;;;;;0.50;0.50;;;16.00;90.30;;;;;;5015178;28;20029;-73
2022/08/24 01:10:42;;;;;;;0.35;0.35;;;15.90;90.90;;;;;;5032973;28;20028;-74
2022/08/24 01:13:10;;;;;;;0.20;0.20;;;15.90;91.10;;;;;;5032954;28;20028;-74
2022/08/24 01:15:38;;;;;;;1.42;1.08;;;15.90;91.20;;;;;;5015005;28;20021;-74
2022/08/24 01:21:04;;;;;;;0.30;0.30;;;15.80;91.50;;;;;;5032778;28;20017;-73
2022/08/24 01:23:38;;;;;;;0.35;0.35;;;15.80;91.90;;;;;;5032741;28;20025;-73
2022/08/24 01:26:08;;;;;;;0.95;0.30;;;15.90;91.90;;;;;;5032653;28;20123;-73
2022/08/24 01:28:35;;;;;;;0.60;0.60;;;16.00;91.70;;;;;;5032623;28;20029;-73
2022/08/24 01:31:02;;;;;;;0.15;0.15;;;16.10;91.80;;;;;;5014924;28;20029;-73
2022/08/24 01:33:30;;;;;;;0.20;0.20;;;16.10;91.50;;;;;;5015136;28;20074;-73
2022/08/24 01:36:06;;;;;;;1.15;0.88;;;16.10;91.70;;;;;;5032472;28;20117;-73
2022/08/24 01:38:33;;;;;;;0.20;0.20;;;16.00;91.80;;;;;;5032495;28;20025;-73
2022/08/24 01:41:00;;;;;;;0.20;0.20;;;15.90;92.30;;;;;;5032461;28;20021;-73
2022/08/24 01:43:27;;;;;;;0.30;0.30;;;16.00;91.90;;;;;;5032748;28;20070;-73
2022/08/24 01:45:53;;;;;;;0.57;0.45;;;16.00;92.00;;;;;;5014701;28;20504;-73
2022/08/24 01:48:19;;;;;;;1.35;1.33;;;15.90;92.20;;;;;;5032365;28;20030;-73
2022/08/24 01:50:45;;;;;;;0.10;0.10;;;15.90;92.90;;;;;;5032266;28;20037;-73
2022/08/24 01:53:11;;;;;;;0.17;0.17;;;16.00;92.70;;;;;;5014518;28;20514;-73
2022/08/24 01:55:38;;;;;;;0.45;0.45;;;16.00;92.70;;;;;;5032181;28;20110;-73
2022/08/24 01:58:04;;;;;;;0.20;0.20;;;15.80;93.00;;;;;;5032434;28;20109;-73
2022/08/24 02:00:31;;;;;;;0.73;0.73;;;15.70;93.40;;;;;;5032251;28;20032;-73
2022/08/24 02:02:57;;;;;;;1.00;1.00;;;15.60;93.80;;;;;;5031658;28;20121;-73
2022/08/24 02:05:23;;;;;;;0.20;0.20;;;15.60;94.20;;;;;;5014344;28;20116;-73
2022/08/24 02:07:50;;;;;;;0.50;0.50;;;15.50;94.90;;;;;;5031969;28;20026;-74
2022/08/24 02:10:17;;;;;;;1.27;0.60;;;15.40;94.60;;;;;;5032199;28;20025;-74
2022/08/24 02:12:56;;;;;;;0.30;0.30;;;15.40;95.10;;;;;;5032113;28;20030;-73
2022/08/24 02:15:28;;;;;;;0.20;0.20;;;15.30;95.70;;;;;;5032029;28;20109;-73
2022/08/24 02:17:54;;;;;;;0.20;0.20;;;15.30;95.70;;;;;;5014386;28;20076;-73
2022/08/24 02:20:21;;;;;;;0.82;0.65;;;15.30;96.10;;;;;;5032089;28;20122;-74
2022/08/24 02:22:49;;;;;;;0.35;0.35;;;15.30;96.40;;;;;;5031986;28;20511;-74
2022/08/24 02:25:15;;;;;;;0.28;0.28;;;15.40;96.80;;;;;;4997874;28;20484;-74
2022/08/24 02:27:41;;;;;;;0.38;0.38;;;15.40;97.00;;;;;;5032174;28;20104;-73
2022/08/24 02:30:08;;;;;;;0.10;0.10;;;15.40;97.20;;;;;;5031917;28;20059;-74
2022/08/24 02:32:34;;;;;;;0.40;0.40;;;15.50;97.10;;;;;;5031871;28;20033;-74
2022/08/24 02:34:59;;;;;;;0.35;0.35;;;15.60;97.00;;;;;;5031728;28;20028;-74
2022/08/24 02:37:25;;;;;;;0.40;0.40;;;15.60;96.90;;;;;;5031730;28;20049;-74
2022/08/24 02:39:51;;;;;;;2.63;0.50;;;15.60;96.60;;;;;;4997734;28;20026;-74
2022/08/24 02:42:17;;;;;;;0.50;0.50;;;15.50;97.30;;;;;;5014289;28;20481;-73
2022/08/24 02:44:43;;;;;;;1.30;1.00;;;15.30;98.00;;;;;;5031782;28;20075;-73
2022/08/24 02:47:09;;;;;;;0.13;0.13;;;15.20;98.60;;;;;;5031702;28;20533;-74
2022/08/24 02:49:35;;;;;;;0.52;0.52;;;15.10;99.30;;;;;;5031707;28;20052;-74
2022/08/24 02:52:02;;;;;;;0.20;0.20;;;15.00;99.90;;;;;;5031652;28;20108;-74
2022/08/24 02:54:28;;;;;;;0.10;0.10;;;15.00;99.90;;;;;;5031675;28;20425;-74
2022/08/24 02:56:54;;;;;;;0.47;0.47;;;15.10;99.90;;;;;;5031625;28;20022;-74
2022/08/24 02:59:20;;;;;;;0.60;0.60;;;15.10;99.90;;;;;;5013941;28;20499;-74
2022/08/24 03:01:47;;;;;;;0.77;0.77;;;15.10;99.90;;;;;;5013975;28;20026;-74
2022/08/24 03:04:13;;;;;;;0.40;0.40;;;15.10;99.90;;;;;;5031667;28;20041;-74
2022/08/24 03:06:39;;;;;;;0.20;0.20;;;15.10;99.90;;;;;;5013826;28;20397;-74
2022/08/24 03:09:06;;;;;;;0.40;0.40;;;15.10;99.90;;;;;;5013878;28;20030;-73
2022/08/24 03:11:32;;;;;;;0.80;0.80;;;15.20;99.90;;;;;;5031514;28;20078;-73
2022/08/24 03:13:58;;;;;;;0.30;0.30;;;15.10;99.90;;;;;;5031417;28;20025;-73
2022/08/24 03:16:25;;;;;;;0.20;0.20;;;14.90;99.90;;;;;;5035012;28;20025;-73
2022/08/24 03:18:51;;;;;;;0.50;0.50;;;14.80;99.90;;;;;;5035051;28;20508;-73
2022/08/24 03:21:17;;;;;;;0.40;0.40;;;14.70;99.90;;;;;;5017380;28;20018;-73
2022/08/24 03:23:43;;;;;;;0.20;0.20;;;14.70;99.90;;;;;;5017229;28;20498;-73
2022/08/24 03:26:10;;;;;;;0.68;0.68;;;14.90;99.90;;;;;;5017325;28;20033;-73
2022/08/24 03:28:35;;;;;;;0.15;0.15;;;14.80;99.90;;;;;;5034838;28;20521;-73
2022/08/24 03:31:01;;;;;;;0.20;0.20;;;14.70;99.90;;;;;;5034853;28;20115;-73
2022/08/24 03:33:27;;;;;;;0.40;0.40;;;14.70;99.90;;;;;;5034788;28;20026;-73
2022/08/24 03:35:54;;;;;;;0.45;0.45;;;14.70;99.90;;;;;;5016909;28;20414;-73
2022/08/24 03:38:20;;;;;;;1.75;0.47;;;14.70;99.90;;;;;;5034632;28;20026;-73
2022/08/24 03:40:45;;;;;;;0.20;0.20;;;14.60;99.90;;;;;;5034701;28;20033;-73
2022/08/24 03:43:44;;;;;;;1.05;0.95;;;14.70;99.90;;;;;;5034672;28;20428;-73
2022/08/24 03:45:57;;;;;;;0.88;0.88;;;14.70;99.90;;;;;;5034584;28;20406;-74
2022/08/24 03:48:23;;;;;;;0.93;0.77;;;14.70;99.90;;;;;;5034548;28;20057;-74
2022/08/24 03:50:50;;;;;;;0.30;0.30;;;14.60;99.90;;;;;;5034789;28;20064;-74
2022/08/24 03:53:15;;;;;;;0.20;0.20;;;14.70;99.90;;;;;;5034607;28;20033;-74
2022/08/24 03:55:41;;;;;;;0.50;0.50;;;14.80;99.90;;;;;;5034440;28;20520;-74
2022/08/24 03:58:07;;;;;;;2.15;1.60;;;14.90;99.90;;;;;;5034432;28;20091;-74
2022/08/24 04:00:33;;;;;;;0.40;0.40;;;14.80;99.90;;;;;;5034421;28;20021;-74
2022/08/24 04:02:58;;;;;;;0.30;0.30;;;14.80;99.90;;;;;;5034221;28;20401;-74
2022/08/24 04:05:24;;;;;;;1.05;0.70;;;14.70;99.90;;;;;;5034344;28;20017;-74
2022/08/24 04:07:50;;;;;;;0.20;0.20;;;14.70;99.90;;;;;;5016544;28;20025;-73
2022/08/24 04:10:16;;;;;;;0.20;0.20;;;14.70;99.90;;;;;;5034261;28;20147;-73
2022/08/24 04:12:41;;;;;;;0.20;0.20;;;14.90;99.90;;;;;;5034236;28;20269;-73
2022/08/24 04:15:08;;;;;;;0.20;0.20;;;15.20;99.90;;;;;;5034072;28;20477;-74
2022/08/24 04:17:34;;;;;;;0.10;0.10;;;15.40;99.90;;;;;;5034058;28;20041;-73
2022/08/24 04:20:00;;;;;;;0.13;0.13;;;15.50;99.90;;;;;;5016287;28;20068;-73
2022/08/24 04:22:29;;;;;;;0.10;0.10;;;15.50;99.90;;;;;;5033923;28;20065;-73
2022/08/24 04:24:55;;;;;;;1.17;0.75;;;15.50;99.90;;;;;;5033787;28;20025;-73
2022/08/24 04:27:22;;;;;;;0.10;0.10;;;15.50;99.90;;;;;;5033357;28;20036;-73
2022/08/24 04:29:48;;;;;;;0.10;0.10;;;15.50;99.90;;;;;;5034021;28;20033;-73
2022/08/24 04:32:14;;;;;;;0.10;0.10;;;15.50;99.90;;;;;;5016181;28;20033;-73
2022/08/24 04:34:42;;;;;;;0.20;0.20;;;15.80;99.90;;;;;;5033522;28;20026;-73
2022/08/24 04:37:08;;;;;;;0.10;0.10;;;15.90;99.90;;;;;;5033593;28;20048;-74
2022/08/24 04:39:34;;;;;;;0.10;0.10;;;15.70;99.90;;;;;;4999490;28;20485;-74
2022/08/24 04:42:00;;;;;;;0.10;0.10;;;15.60;99.90;;;;;;5033568;28;20026;-75
2022/08/24 04:44:25;;;;;;;0.10;0.10;;;15.60;99.90;;;;;;5033501;28;20104;-74
2022/08/24 04:46:51;;;;;;;0.10;0.10;;;15.80;99.90;;;;;;5033685;28;20032;-74
2022/08/24 04:49:17;;;;;;;0.15;0.15;;;15.90;99.90;;;;;;5033297;28;20084;-74
2022/08/24 04:51:43;;;;;;;0.40;0.40;;;16.10;99.90;;;;;;5015564;28;20029;-74
2022/08/24 04:54:09;;;;;;;0.17;0.17;;;15.80;99.90;;;;;;5033206;28;20032;-73
2022/08/24 04:56:35;;;;;;;0.10;0.10;;;15.50;99.90;;;;;;5015627;28;20079;-73
2022/08/24 04:59:02;;;;;;;0.13;0.13;;;15.40;99.90;;;;;;5015516;28;20061;-73
2022/08/24 05:01:31;;;;;;;0.10;0.10;;;15.30;99.90;;;;;;5033131;28;20093;-73
2022/08/24 05:03:56;;;;;;;0.10;0.10;;;15.30;99.90;;;;;;5033138;28;20017;-73
2022/08/24 05:06:25;;;;;;;0.20;0.20;;;15.60;99.90;;;;;;5032969;28;20032;-73
2022/08/24 05:08:52;;;;;;;0.20;0.20;;;15.80;99.90;;;;;;5032919;28;20029;-73
2022/08/24 05:11:20;;;;;;;0.10;0.10;;;16.00;99.90;;;;;;5032900;28;20022;-73
2022/08/24 05:13:46;;;;;;;0.10;0.10;;;15.90;99.90;;;;;;5015123;28;20022;-74
2022/08/24 05:16:15;;;;;;;0.20;0.20;;;15.90;99.90;;;;;;5032665;28;20033;-74
2022/08/24 05:18:41;;;;;;;0.10;0.10;;;15.90;99.90;;;;;;5032633;28;20501;-74
2022/08/24 05:21:13;;;;;;;0.20;0.20;;;16.00;99.90;;;;;;5032709;28;20413;-74
2022/08/24 05:23:40;;;;;;;0.10;0.10;;;16.10;99.90;;;;;;5032806;28;20024;-74
2022/08/24 05:26:09;;;;;;;0.10;0.10;;;16.10;99.90;;;;;;5014710;28;20397;-74
2022/08/24 05:28:35;;;;;;;0.20;0.20;;;16.20;99.90;;;;;;5032608;28;20104;-74
2022/08/24 05:31:09;;;;;;;0.10;0.10;;;16.30;99.90;;;;;;5014962;28;20025;-74
2022/08/24 05:33:36;;;;;;;0.10;0.10;;;16.50;99.90;;;;;;5014787;28;20117;-74
2022/08/24 05:36:03;;;;;;;0.10;0.10;;;16.60;99.90;;;;;;5032395;28;20116;-74
2022/08/24 05:38:31;;;;;;;0.10;0.10;;;16.70;99.90;;;;;;5031511;28;20022;-74
2022/08/24 05:40:57;;;;;;;0.10;0.10;;;16.60;99.90;;;;;;5032399;28;20025;-74
2022/08/24 05:43:23;;;;;;;0.10;0.10;;;16.40;99.90;;;;;;5014544;28;20044;-74
2022/08/24 05:45:48;;;;;;;0.10;0.10;;;16.60;99.90;;;;;;5031377;28;20384;-74
2022/08/24 05:48:14;;;;;;;0.35;0.35;;;16.70;99.90;;;;;;5031668;28;20025;-74
2022/08/24 05:50:40;;;;;;;0.10;0.10;;;16.70;99.90;;;;;;5013545;28;20473;-73
2022/08/24 05:53:06;;;;;;;0.10;0.10;;;16.80;99.90;;;;;;5031978;28;20033;-74
2022/08/24 05:55:32;;;;;;;0.10;0.10;;;16.80;99.90;;;;;;5014312;28;20034;-75
2022/08/24 05:57:57;;;;;;;0.10;0.10;;;16.70;99.90;;;;;;5032062;28;20029;-74
2022/08/24 06:00:24;;;;;;;0.15;0.15;;;16.80;99.90;;;;;;5032157;28;20072;-74
2022/08/24 06:02:54;;;;;;;0.20;0.20;;;16.90;99.90;;;;;;5031327;28;20025;-74
2022/08/24 06:05:20;;;;;;;0.17;0.17;;;16.90;99.90;;;;;;5032120;28;20105;-74
2022/08/24 06:07:46;;;;;;;1.75;1.55;;;17.00;99.90;;;;;;5031986;28;20100;-74
2022/08/24 06:10:12;;;;;;;0.30;0.30;;;17.00;99.90;;;;;;5032086;28;20025;-74
2022/08/24 06:12:38;;;;;;;0.10;0.10;;;17.20;99.90;;;;;;5032071;28;20060;-74
2022/08/24 06:15:04;;;;;;;0.10;0.10;;;17.30;99.90;;;;;;5032176;28;20477;-74
2022/08/24 06:17:30;;;;;;;0.10;0.10;;;17.40;99.90;;;;;;5031918;28;20060;-74
2022/08/24 06:19:55;;;;;;;0.10;0.10;;;17.40;99.90;;;;;;5014206;28;20045;-74
2022/08/24 06:22:21;;;;;;;0.30;0.30;;;17.50;99.90;;;;;;5031905;28;20052;-74
2022/08/24 06:27:31;;;;;;;0.20;0.20;;;17.70;99.90;;;;;;5031921;28;20037;-74
2022/08/24 06:30:04;;;;;;;0.10;0.10;;;17.70;99.90;;;;;;5014224;28;20129;-74
2022/08/24 06:32:30;;;;;;;0.10;0.10;;;17.90;99.90;;;;;;4997675;28;20120;-74
2022/08/24 06:34:57;;;;;;;0.05;0.05;;;17.90;99.90;;;;;;5031829;28;20105;-74
2022/08/24 06:37:26;;;;;;;0.10;0.10;;;18.10;99.90;;;;;;5031852;28;20029;-74
2022/08/24 06:39:56;;;;;;;0.10;0.10;;;18.20;99.90;;;;;;5032052;28;20385;-74
2022/08/24 06:42:25;;;;;;;0.10;0.10;;;18.40;99.90;;;;;;5031644;28;20106;-74
2022/08/24 06:44:51;;;;;;;0.10;0.10;;;18.60;99.90;;;;;;5031709;28;20042;-75
2022/08/24 06:47:17;;;;;;;0.28;0.20;;;18.60;99.90;;;;;;5031697;28;20125;-75
2022/08/24 06:49:44;;;;;;;0.10;0.10;;;18.70;99.90;;;;;;5032572;28;20100;-75
2022/08/24 06:52:13;;;;;;;0.00;0.00;;;18.60;99.60;;;;;;5017988;28;20489;-75
2022/08/24 06:54:39;;;;;;;0.10;0.10;;;18.80;99.10;;;;;;5035315;28;20108;-75
2022/08/24 06:57:05;;;;;;;0.10;0.10;;;19.00;98.20;;;;;;5035341;28;20021;-75
2022/08/24 06:59:32;;;;;;;0.10;0.10;;;19.20;96.70;;;;;;5035282;28;20075;-75
2022/08/24 07:01:58;;;;;;;0.00;0.00;;;19.20;96.60;;;;;;5035029;28;20026;-75
2022/08/24 07:04:26;;;;;;;0.10;0.10;;;19.30;96.90;;;;;;5050163;28;20036;-75
2022/08/24 07:06:54;;;;;;;0.10;0.10;;;19.50;95.50;;;;;;5037246;28;20068;-75
2022/08/24 07:09:23;;;;;;;0.10;0.10;;;19.60;94.40;;;;;;5055082;28;20090;-75
2022/08/24 07:11:50;;;;;;;0.38;0.38;;;19.70;94.20;;;;;;5042227;28;20022;-75
2022/08/24 07:14:16;;;;;;;0.15;0.15;;;19.70;94.00;;;;;;5034998;28;20026;-75
2022/08/24 07:16:42;;;;;;;0.00;0.00;;;19.80;92.80;;;;;;5035019;28;20568;-75
2022/08/24 07:19:08;;;;;;;0.00;0.00;;;20.00;92.30;;;;;;5034999;28;20115;-75
2022/08/24 07:21:34;;;;;;;0.10;0.10;;;20.10;92.30;;;;;;5017343;28;20474;-74
2022/08/24 07:24:01;;;;;;;0.10;0.10;;;20.30;91.80;;;;;;5017361;28;20021;-74
2022/08/24 07:26:30;;;;;;;0.00;0.00;;;20.40;91.70;;;;;;5034794;28;20029;-74
2022/08/24 07:29:04;;;;;;;0.13;0.13;;;20.60;90.80;;;;;;5034761;28;20428;-75
2022/08/24 07:31:34;;;;;;;0.05;0.05;;;20.50;91.10;;;;;;5017194;28;20021;-74
2022/08/24 07:34:01;;;;;;;0.20;0.20;;;20.30;91.60;;;;;;5000552;28;20424;-75
2022/08/24 07:36:27;;;;;;;0.10;0.10;;;20.40;92.00;;;;;;5016888;28;20441;-74
2022/08/24 07:38:53;;;;;;;1.15;1.05;;;20.70;91.20;;;;;;5034513;28;20038;-75
2022/08/24 07:41:21;;;;;;;0.10;0.10;;;20.90;91.20;;;;;;5034596;28;20033;-75
2022/08/24 07:43:48;;;;;;;0.17;0.17;;;21.10;91.70;;;;;;5034531;28;20025;-74
2022/08/24 07:46:13;;;;;;;0.08;0.08;;;21.20;91.30;;;;;;5034627;28;20026;-74
2022/08/24 07:48:39;;;;;;;0.10;0.10;;;21.20;91.40;;;;;;5016666;28;20428;-75
2022/08/24 07:51:10;;;;;;;0.10;0.10;;;21.20;91.50;;;;;;5034425;28;20036;-75
2022/08/24 07:53:36;;;;;;;0.10;0.10;;;21.30;91.10;;;;;;5016663;28;20021;-74
2022/08/24 07:56:02;;;;;;;0.00;0.00;;;21.40;91.00;;;;;;5034072;28;20534;-74
2022/08/24 07:58:28;;;;;;;0.10;0.10;;;21.50;90.80;;;;;;5033991;28;20037;-75
2022/08/24 08:00:54;;;;;;;0.10;0.10;;;21.60;89.90;;;;;;5033530;28;20508;-75
2022/08/24 08:03:20;;;;;;;0.20;0.20;;;21.70;86.20;;;;;;5016094;28;20041;-75
2022/08/24 08:05:48;;;;;;;0.20;0.20;;;21.80;85.20;;;;;;5034194;28;20025;-75
2022/08/24 08:08:14;;;;;;;0.00;0.00;;;21.70;85.20;;;;;;5034030;28;20025;-74
2022/08/24 08:10:40;;;;;;;1.17;0.90;;;21.60;85.60;;;;;;5033978;28;20032;-75
2022/08/24 08:13:06;;;;;;;0.05;0.05;;;21.70;85.40;;;;;;5034038;28;20029;-75
2022/08/24 08:15:33;;;;;;;0.00;0.00;;;21.80;83.20;;;;;;5033873;28;20038;-75
2022/08/24 08:17:58;;;;;;;0.10;0.10;;;21.90;82.30;;;;;;5033764;28;20021;-75
2022/08/24 08:20:24;;;;;;;0.70;0.57;;;22.20;80.20;;;;;;5033741;28;20477;-75
2022/08/24 08:25:37;;;;;;;0.00;0.00;;;22.50;79.20;;;;;;5015989;28;20033;-74
2022/08/24 08:28:05;;;;;;;0.10;0.10;;;22.50;78.20;;;;;;5033441;28;20113;-74
2022/08/24 08:30:31;;;;;;;0.13;0.10;;;22.70;78.80;;;;;;5016060;28;20071;-74
2022/08/24 08:32:57;;;;;;;0.60;0.57;;;22.80;76.70;;;;;;5015868;28;20021;-75
2022/08/24 08:35:23;;;;;;;0.03;0.03;;;22.70;77.30;;;;;;5033141;28;20504;-75
2022/08/24 08:37:49;;;;;;;0.10;0.10;;;22.70;76.80;;;;;;5033523;28;20017;-75
2022/08/24 08:40:44;;;;;;;0.55;0.55;;;22.80;78.30;;;;;;5033592;28;20033;-74
2022/08/24 08:43:40;;;;;;;0.30;0.30;;;23.00;75.30;;;;;;4992963;28;20041;-76
2022/08/24 08:46:34;;;;;;;0.35;0.32;;;23.20;74.10;;;;;;5033177;28;20101;-74
2022/08/24 08:55:06;;;;;;;1.00;0.60;;;23.90;74.70;;;;;;5772341;23;20077;-94
2022/08/24 09:01:30;;;;;;;0.22;0.10;;;24.20;73.60;;;;;;4982676;23;20110;-79
2022/08/24 09:04:13;;;;;;;0.28;0.20;;;24.50;71.60;;;;;;5051831;28;20087;-78
2022/08/24 09:06:51;;;;;;;0.20;0.20;;;24.60;69.50;;;;;;5034535;28;20068;-78
2022/08/24 09:09:47;;;;;;;0.40;0.40;;;24.60;70.60;;;;;;5017790;28;20029;-79
2022/08/24 09:12:44;;;;;;;0.38;0.38;;;24.80;68.20;;;;;;5050929;28;20049;-79
2022/08/24 09:15:55;;;;;;;0.57;0.28;;;24.70;68.10;;;;;;5034694;28;20041;-78
2022/08/24 09:18:51;;;;;;;0.10;0.10;;;25.30;67.40;;;;;;4980975;28;20026;-79
2022/08/24 09:21:36;;;;;;;1.65;1.35;;;25.10;65.80;;;;;;5034658;28;20030;-78
2022/08/24 09:24:30;;;;;;;0.00;0.00;;;25.40;64.10;;;;;;5061637;22;20132;-74
2022/08/24 09:27:11;;;;;;;0.25;0.25;;;25.70;63.30;;;;;;5041245;28;20013;-74
2022/08/24 09:29:46;;;;;;;1.35;0.63;;;25.70;61.80;;;;;;5044540;28;20021;-74
2022/08/24 09:32:36;;;;;;;0.00;0.00;;;25.50;62.50;;;;;;5031491;28;20025;-75
2022/08/24 09:35:10;;;;;;;2.50;0.45;;;26.20;61.60;;;;;;5049231;28;20043;-75
2022/08/24 09:38:15;;;;;;;0.28;0.28;;;26.50;59.50;;;;;;5052254;28;20055;-76
2022/08/24 09:40:50;;;;;;;1.17;1.08;;;26.80;58.70;;;;;;5036290;28;20022;-76
2022/08/24 09:43:44;;;;;;;0.20;0.20;;;27.00;57.70;;;;;;5046878;28;20021;-75
2022/08/24 09:46:19;;;;;;;0.20;0.20;;;26.80;58.60;;;;;;5052211;28;20029;-75
2022/08/24 09:48:59;;;;;;;0.00;0.00;;;27.50;58.00;;;;;;5050981;28;20017;-76
2022/08/24 09:51:45;;;;;;;0.00;0.00;;;28.00;57.80;;;;;;5052149;28;20025;-75
2022/08/24 09:54:46;;;;;;;0.10;0.05;;;28.20;56.50;;;;;;5034085;28;20025;-76
2022/08/24 09:57:39;;;;;;;0.68;0.15;;;27.60;56.10;;;;;;5050354;28;20021;-74
2022/08/24 10:00:13;;;;;;;0.60;0.10;;;28.20;54.60;;;;;;5034183;28;20032;-74
2022/08/24 10:02:45;;;;;;;0.28;0.28;;;28.60;53.40;;;;;;5050951;28;20496;-74
2022/08/24 10:05:23;;;;;;;0.00;0.00;;;28.40;53.40;;;;;;5050777;28;20105;-74
2022/08/24 10:08:04;;;;;;;0.35;0.35;;;27.90;53.20;;;;;;5048920;28;20107;-75
2022/08/24 10:10:47;;;;;;;0.00;0.00;;;28.00;53.50;;;;;;5048767;28;20396;-74
2022/08/24 10:13:13;;;;;;;0.13;0.13;;;28.30;53.20;;;;;;5033087;28;20120;-74
2022/08/24 10:15:57;;;;;;;0.55;0.55;;;28.80;52.90;;;;;;5050359;28;20100;-75
2022/08/24 10:18:31;;;;;;;0.00;0.00;;;29.10;52.40;;;;;;5050749;28;20025;-75
2022/08/24 10:21:44;;;;;;;0.52;0.40;;;28.80;52.20;;;;;;5050982;28;20029;-75
2022/08/24 10:24:42;;;;;;;0.00;0.00;;;29.10;52.40;;;;;;5033734;28;20587;-74
2022/08/24 10:27:40;;;;;;;0.00;0.00;;;29.30;52.30;;;;;;5038111;28;20053;-74
2022/08/24 10:30:38;;;;;;;0.00;0.00;;;29.80;50.80;;;;;;5032670;28;20485;-75
2022/08/24 10:33:18;;;;;;;0.30;0.30;;;30.10;49.90;;;;;;5054681;28;20021;-75
2022/08/24 10:35:47;;;;;;;1.55;0.17;;;29.90;49.30;;;;;;5054300;28;20465;-74
2022/08/24 10:41:36;;;;;;;0.00;0.00;;;30.50;48.80;;;;;;5055582;28;20053;-75
2022/08/24 10:44:23;;;;;;;0.10;0.10;;;30.40;47.30;;;;;;5055676;28;20071;-75
2022/08/24 10:47:00;;;;;;;0.00;0.00;;;30.30;47.20;;;;;;5055622;28;20491;-75
2022/08/24 10:49:48;;;;;;;0.80;0.80;;;30.60;48.20;;;;;;5055801;28;20086;-75
2022/08/24 10:52:39;;;;;;;0.00;0.00;;;29.90;48.50;;;;;;5055267;28;20025;-75
2022/08/24 10:55:21;;;;;;;0.10;0.10;;;30.00;49.40;;;;;;5055128;28;20057;-75
2022/08/24 10:58:09;;;;;;;0.47;0.40;;;30.10;48.50;;;;;;5037419;28;20028;-75
2022/08/24 11:00:35;;;;;;;0.00;0.00;;;29.60;48.70;;;;;;5055546;28;20488;-74
2022/08/24 11:03:14;;;;;;;0.08;0.03;;;29.70;49.80;;;;;;5055358;28;20029;-74
2022/08/24 11:05:52;;;;;;;0.17;0.17;;;30.00;50.00;;;;;;5054113;28;20353;-74
2022/08/24 11:08:26;;;;;;;1.00;0.38;;;29.90;49.40;;;;;;5055422;28;20025;-75
2022/08/24 11:11:09;;;;;;;1.50;0.45;;;29.60;49.70;;;;;;5055207;28;20021;-75
2022/08/24 11:13:37;;;;;;;0.10;0.10;;;29.70;50.10;;;;;;5053854;28;20029;-76
2022/08/24 11:16:05;;;;;;;0.25;0.25;;;30.20;49.40;;;;;;5053626;28;20025;-75
2022/08/24 11:18:48;;;;;;;0.00;0.00;;;30.60;48.50;;;;;;5037359;28;20040;-75
2022/08/24 11:21:31;;;;;;;3.13;0.30;;;30.80;48.50;;;;;;5044365;28;20102;-75
2022/08/24 11:24:10;;;;;;;0.63;0.63;;;30.80;47.90;;;;;;5042763;28;20078;-75
2022/08/24 11:26:54;;;;;;;0.15;0.15;;;30.60;47.50;;;;;;5045513;28;20029;-73
2022/08/24 11:29:22;;;;;;;0.15;0.15;;;30.50;47.10;;;;;;5052961;28;20056;-74
2022/08/24 11:31:51;;;;;;;1.00;0.40;;;30.70;47.80;;;;;;5054917;28;20078;-74
2022/08/24 11:34:31;;;;;;;0.65;0.20;;;30.20;47.40;;;;;;5054615;28;20036;-74
2022/08/24 11:36:57;;;;;;;0.45;0.30;;;30.00;49.00;;;;;;5044171;28;20021;-74
2022/08/24 11:39:31;;;;;;;0.30;0.15;;;30.50;48.00;;;;;;5034768;28;20048;-75
2022/08/24 11:42:46;;;;;;;1.02;0.47;;;30.80;48.00;;;;;;5037616;28;20373;-75
2022/08/24 11:45:22;;;;;;;0.00;0.00;;;31.00;49.20;;;;;;5031572;28;20037;-74
2022/08/24 11:48:10;;;;;;;0.10;0.10;;;31.40;47.00;;;;;;5033566;28;20021;-75
2022/08/24 11:50:42;;;;;;;0.28;0.20;;;31.40;46.00;;;;;;5035015;28;20636;-75
2022/08/24 11:53:26;;;;;;;0.28;0.20;;;31.30;45.40;;;;;;5066112;28;20028;-75
2022/08/24 11:56:10;;;;;;;0.03;0.00;;;30.90;46.50;;;;;;5037066;28;20056;-74
2022/08/24 11:58:45;;;;;;;0.10;0.10;;;31.50;44.90;;;;;;5045748;28;20022;-75
2022/08/24 12:01:26;;;;;;;0.25;0.25;;;31.80;44.50;;;;;;5034324;28;20469;-75
2022/08/24 12:03:59;;;;;;;0.13;0.13;;;31.60;45.70;;;;;;5034413;28;20052;-75
2022/08/24 12:06:48;;;;;;;0.00;0.00;;;31.20;45.50;;;;;;5033316;28;20060;-75
2022/08/24 12:09:41;;;;;;;0.00;0.00;;;31.30;44.80;;;;;;5054088;28;20044;-75
2022/08/24 12:12:28;;;;;;;0.00;0.00;;;31.60;45.30;;;;;;5049853;28;20052;-74
2022/08/24 12:15:25;;;;;;;0.30;0.30;;;31.30;45.70;;;;;;5054311;28;20033;-75
2022/08/24 12:18:01;;;;;;;0.20;0.20;;;30.60;46.20;;;;;;5053808;28;20032;-74
2022/08/24 12:20:37;;;;;;;0.00;0.00;;;30.00;45.10;;;;;;5055450;28;20025;-74
2022/08/24 12:23:13;;;;;;;0.08;0.08;;;29.10;47.50;;;;;;5037137;28;20111;-73
2022/08/24 12:28:30;;;;;;;0.38;0.25;;;29.10;48.10;;;;;;5042722;28;20029;-73
2022/08/24 12:31:02;;;;;;;0.30;0.30;;;29.10;47.00;;;;;;5033456;28;20374;-73
2022/08/24 12:33:29;;;;;;;;;;;28.60;47.80;;;;;;5033517;28;20033;-73
2022/08/24 12:36:01;;;;;;;0.20;0.20;;;28.70;48.00;;;;;;5033136;28;20011;-73
2022/08/24 12:38:42;;;;;;;0.28;0.28;;;28.70;48.20;;;;;;5033834;28;20447;-74
2022/08/24 12:41:30;;;;;;;0.13;0.13;;;28.70;48.70;;;;;;5032407;28;20108;-74
2022/08/24 12:44:11;;;;;;;0.00;0.00;;;28.70;48.70;;;;;;5033882;28;20025;-75
2022/08/24 12:46:38;;;;;;;0.57;0.50;;;28.60;47.90;;;;;;5015996;28;20541;-74
2022/08/24 12:49:13;;;;;;;0.00;0.00;;;28.80;47.30;;;;;;5033434;28;20424;-74
2022/08/24 12:51:54;;;;;;;0.00;0.00;;;28.80;47.80;;;;;;5034309;28;20022;-73
2022/08/24 12:54:53;;;;;;;0.10;0.10;;;28.80;47.70;;;;;;5034004;28;20461;-76
2022/08/24 12:57:56;;;;;;;0.00;0.00;;;28.70;47.90;;;;;;5033512;28;20026;-75
2022/08/24 13:00:36;;;;;;;0.00;0.00;;;28.60;49.20;;;;;;5032710;28;20048;-75
2022/08/24 13:03:22;;;;;;;0.05;0.05;;;28.30;48.50;;;;;;5032896;28;20112;-75
2022/08/24 13:05:54;;;;;;;0.00;0.00;;;28.40;48.30;;;;;;5032057;28;20037;-75
2022/08/24 13:08:32;;;;;;;0.00;0.00;;;28.70;48.60;;;;;;5034207;28;20476;-74
2022/08/24 13:11:09;;;;;;;0.00;0.00;;;28.30;47.90;;;;;;5032381;28;20180;-75
2022/08/24 13:13:53;;;;;;;0.00;0.00;;;28.40;48.60;;;;;;5033597;28;20053;-75
2022/08/24 13:16:46;;;;;;;0.00;0.00;;;28.40;49.00;;;;;;5032031;28;20449;-74
2022/08/24 13:19:27;;;;;;;5.30;0.93;;;28.40;49.20;;;;;;5032326;28;20025;-74
2022/08/24 13:21:57;;;;;;;0.43;0.43;;;28.10;48.30;;;;;;5015548;28;20112;-74
2022/08/24 13:24:29;;;;;;;0.50;0.50;;;27.90;49.30;;;;;;5015427;28;20451;-73
2022/08/24 13:27:15;;;;;;;0.55;0.25;;;27.80;49.30;;;;;;5015596;28;20021;-74
2022/08/24 13:30:35;;;;;;;1.45;0.95;;;27.50;50.20;;;;;;5031601;28;20366;-79
2022/08/24 13:33:09;;;;;;;0.00;0.00;;;27.40;49.30;;;;;;5009717;28;20037;-75
2022/08/24 13:35:37;;;;;;;0.35;0.25;;;27.50;50.10;;;;;;5031400;28;20057;-75
2022/08/24 13:38:33;;;;;;;0.13;0.13;;;27.50;50.60;;;;;;5032528;28;20021;-75